createdAt,value
2022-12-28T00:02:14.810Z,9.23
2022-12-28T00:04:42.940Z,8.83
2022-12-28T00:07:10.820Z,9.57
2022-12-28T00:09:38.559Z,9.93
2022-12-28T00:12:06.439Z,9.97
2022-12-28T00:14:34.503Z,9.90
2022-12-28T00:17:02.381Z,10.13
2022-12-28T00:19:30.714Z,10.73
2022-12-28T00:21:58.027Z,13.83
2022-12-28T00:24:26.244Z,11.40
2022-12-28T00:26:55.952Z,10.50
2022-12-28T00:29:24.448Z,11.10
2022-12-28T00:31:52.017Z,11.27
2022-12-28T00:34:20.008Z,12.07
2022-12-28T00:37:10.413Z,11.97
2022-12-28T00:39:40.263Z,10.97
2022-12-28T00:42:07.568Z,11.93
2022-12-28T00:44:35.207Z,11.83
2022-12-28T00:47:02.619Z,11.87
2022-12-28T00:49:30.278Z,13.43
2022-12-28T00:51:59.000Z,12.53
2022-12-28T00:54:26.661Z,12.83
2022-12-28T00:56:54.093Z,12.40
2022-12-28T00:59:21.688Z,12.67
2022-12-28T01:01:49.032Z,12.97
2022-12-28T01:04:16.865Z,13.80
2022-12-28T01:06:44.256Z,13.80
2022-12-28T01:09:12.031Z,15.13
2022-12-28T01:11:39.457Z,17.30
2022-12-28T01:14:07.046Z,15.33
2022-12-28T01:16:36.579Z,15.30
2022-12-28T01:19:06.826Z,14.90
2022-12-28T01:21:35.698Z,17.37
2022-12-28T01:24:05.609Z,15.80
2022-12-28T01:26:33.176Z,16.13
2022-12-28T01:29:01.658Z,15.27
2022-12-28T01:31:33.069Z,15.70
2022-12-28T01:34:01.342Z,16.73
2022-12-28T01:36:35.219Z,16.60
2022-12-28T01:39:05.597Z,16.10
2022-12-28T01:41:37.447Z,16.27
2022-12-28T01:44:05.540Z,15.70
2022-12-28T01:46:50.296Z,14.77
2022-12-28T01:49:30.106Z,17.70
2022-12-28T01:52:06.505Z,16.67
2022-12-28T01:54:45.755Z,16.13
2022-12-28T01:57:14.581Z,15.50
2022-12-28T01:59:45.988Z,17.03
2022-12-28T02:02:15.467Z,15.00
2022-12-28T02:04:45.382Z,16.67
2022-12-28T02:07:18.284Z,16.60
2022-12-28T02:10:41.445Z,16.90
2022-12-28T02:12:34.725Z,17.03
2022-12-28T02:15:02.892Z,17.77
2022-12-28T02:17:30.799Z,18.33
2022-12-28T02:19:58.510Z,19.10
2022-12-28T02:22:51.968Z,18.73
2022-12-28T02:25:43.619Z,17.13
2022-12-28T02:28:38.510Z,18.63
2022-12-28T02:31:24.793Z,18.47
2022-12-28T02:34:04.665Z,19.47
2022-12-28T02:36:39.920Z,17.60
2022-12-28T02:39:21.913Z,19.33
2022-12-28T02:41:51.787Z,18.43
2022-12-28T02:44:39.586Z,19.03
2022-12-28T02:47:33.075Z,19.60
2022-12-28T02:50:06.401Z,19.87
2022-12-28T02:53:11.445Z,19.83
2022-12-28T02:56:08.370Z,20.07
2022-12-28T02:58:36.485Z,21.20
2022-12-28T03:01:06.889Z,20.57
2022-12-28T03:03:53.292Z,20.23
2022-12-28T03:06:46.129Z,19.23
2022-12-28T03:09:31.665Z,20.80
2022-12-28T03:12:28.843Z,22.03
2022-12-28T03:15:04.114Z,20.83
2022-12-28T03:17:53.550Z,20.67
2022-12-28T03:20:48.488Z,21.80
2022-12-28T03:23:38.494Z,21.03
2022-12-28T03:26:28.924Z,20.10
2022-12-28T03:29:18.556Z,20.50
2022-12-28T03:31:46.458Z,19.30
2022-12-28T03:34:16.379Z,21.53
2022-12-28T03:37:09.567Z,19.63
2022-12-28T03:40:10.926Z,21.17
2022-12-28T03:43:04.198Z,21.47
2022-12-28T03:45:47.526Z,20.60
2022-12-28T03:48:18.208Z,21.40
2022-12-28T03:50:48.907Z,19.43
2022-12-28T03:53:23.312Z,19.03
2022-12-28T03:56:15.995Z,19.47
2022-12-28T03:58:46.150Z,19.23
2022-12-28T04:01:15.735Z,18.10
2022-12-28T04:03:44.759Z,19.47
2022-12-28T04:06:18.648Z,19.37
2022-12-28T04:08:47.674Z,17.77
2022-12-28T04:11:15.295Z,17.00
2022-12-28T04:13:47.432Z,15.73
2022-12-28T04:16:17.016Z,16.50
2022-12-28T04:18:45.664Z,15.80
2022-12-28T04:21:15.185Z,16.77
2022-12-28T04:23:46.775Z,16.07
2022-12-28T04:26:23.799Z,16.27
2022-12-28T04:28:54.493Z,16.40
2022-12-28T04:31:39.927Z,14.87
2022-12-28T04:34:12.854Z,15.27
2022-12-28T04:36:52.424Z,15.27
2022-12-28T04:39:23.697Z,15.80
2022-12-28T04:41:51.115Z,14.53
2022-12-28T04:44:18.708Z,15.03
2022-12-28T04:46:46.248Z,14.77
2022-12-28T04:49:13.940Z,13.53
2022-12-28T04:51:41.342Z,14.70
2022-12-28T04:54:13.446Z,14.37
2022-12-28T04:56:40.832Z,14.23
2022-12-28T04:59:08.479Z,15.40
2022-12-28T05:01:36.473Z,13.57
2022-12-28T05:04:04.329Z,13.97
2022-12-28T05:06:31.838Z,13.37
2022-12-28T05:08:59.614Z,13.33
2022-12-28T05:11:29.017Z,12.30
2022-12-28T05:13:57.179Z,13.67
2022-12-28T05:16:27.539Z,13.20
2022-12-28T05:18:57.360Z,13.20
2022-12-28T05:21:26.972Z,12.77
2022-12-28T05:23:56.094Z,13.80
2022-12-28T05:26:26.352Z,13.73
2022-12-28T05:28:55.322Z,13.03
2022-12-28T05:31:24.414Z,14.07
2022-12-28T05:33:53.048Z,13.10
2022-12-28T05:36:23.675Z,14.27
2022-12-28T05:38:52.584Z,14.83
2022-12-28T05:41:26.452Z,13.80
2022-12-28T05:43:54.639Z,14.10
2022-12-28T05:46:40.177Z,14.90
2022-12-28T05:49:10.905Z,15.63
2022-12-28T05:51:39.989Z,14.63
2022-12-28T05:54:07.851Z,14.67
2022-12-28T05:56:35.278Z,14.37
2022-12-28T05:59:05.709Z,13.97
2022-12-28T06:01:37.653Z,15.70
2022-12-28T06:04:09.081Z,14.53
2022-12-28T06:06:36.675Z,14.77
2022-12-28T06:09:04.760Z,14.03
2022-12-28T06:11:32.869Z,15.27
2022-12-28T06:14:03.726Z,15.37
2022-12-28T06:16:33.648Z,15.90
2022-12-28T06:19:08.804Z,14.23
2022-12-28T06:21:38.649Z,14.10
2022-12-28T06:24:07.975Z,14.27
2022-12-28T06:26:37.878Z,15.80
2022-12-28T06:29:06.059Z,15.70
2022-12-28T06:31:36.820Z,15.13
2022-12-28T06:34:06.437Z,14.80
2022-12-28T06:36:37.281Z,14.43
2022-12-28T06:39:06.990Z,15.00
2022-12-28T06:41:35.508Z,14.07
2022-12-28T06:44:06.650Z,12.93
2022-12-28T06:46:35.037Z,13.13
2022-12-28T06:49:02.571Z,13.87
2022-12-28T06:51:36.057Z,14.33
2022-12-28T06:54:03.421Z,14.60
2022-12-28T06:56:33.101Z,15.20
2022-12-28T06:59:03.617Z,12.77
2022-12-28T07:01:37.813Z,14.10
2022-12-28T07:04:07.478Z,14.23
2022-12-28T07:06:38.512Z,15.33
2022-12-28T07:09:09.407Z,32.17
2022-12-28T07:11:37.574Z,26.37
2022-12-28T07:14:05.438Z,19.63
2022-12-28T07:19:00.504Z,14.50
2022-12-28T07:21:34.851Z,14.47
2022-12-28T07:24:03.023Z,12.50
2022-12-28T07:26:33.787Z,14.17
2022-12-28T07:29:03.199Z,12.70
2022-12-28T07:31:39.737Z,14.93
2022-12-28T07:34:09.782Z,15.33
2022-12-28T07:36:40.763Z,13.70
2022-12-28T07:39:09.361Z,12.83
2022-12-28T07:41:38.891Z,13.93
2022-12-28T07:44:07.661Z,12.93
2022-12-28T07:46:37.282Z,11.93
2022-12-28T07:49:05.971Z,12.40
2022-12-28T07:51:36.664Z,14.73
2022-12-28T07:54:05.895Z,14.67
2022-12-28T07:59:03.641Z,13.27
2022-12-28T08:01:34.325Z,13.27
2022-12-28T08:04:07.860Z,12.83
2022-12-28T08:06:39.091Z,13.00
2022-12-28T08:09:08.396Z,12.20
2022-12-28T08:11:40.179Z,13.70
2022-12-28T08:14:09.052Z,12.83
2022-12-28T08:16:39.585Z,32.20
2022-12-28T08:19:08.587Z,16.20
2022-12-28T08:21:39.030Z,12.77
2022-12-28T08:24:07.678Z,11.47
2022-12-28T08:26:38.070Z,11.53
2022-12-28T08:29:14.897Z,11.17
2022-12-28T08:31:45.280Z,11.83
2022-12-28T08:34:16.569Z,11.37
2022-12-28T08:36:44.623Z,11.23
2022-12-28T08:39:14.427Z,10.83
2022-12-28T08:41:43.133Z,11.37
2022-12-28T08:44:10.844Z,11.97
2022-12-28T08:46:41.019Z,11.87
2022-12-28T08:49:09.134Z,11.57
2022-12-28T08:51:41.892Z,10.53
2022-12-28T08:54:11.552Z,10.57
2022-12-28T08:56:40.689Z,10.50
2022-12-28T08:59:08.893Z,9.63
2022-12-28T09:01:43.670Z,10.43
2022-12-28T09:04:14.679Z,10.10
2022-12-28T09:06:43.526Z,11.17
2022-12-28T09:09:14.651Z,11.37
2022-12-28T09:11:42.974Z,12.80
2022-12-28T09:14:20.360Z,9.57
2022-12-28T09:16:51.949Z,10.40
2022-12-28T09:19:19.825Z,8.97
2022-12-28T09:21:49.502Z,9.40
2022-12-28T09:24:18.943Z,9.93
2022-12-28T09:26:47.283Z,10.17
2022-12-28T09:29:15.159Z,9.93
2022-12-28T09:31:44.795Z,10.40
2022-12-28T09:37:01.761Z,10.00
2022-12-28T09:39:29.767Z,11.47
2022-12-28T09:42:02.373Z,12.57
2022-12-28T09:44:32.937Z,11.40
2022-12-28T09:47:24.462Z,12.03
2022-12-28T09:50:01.425Z,10.97
2022-12-28T09:53:03.753Z,10.00
2022-12-28T09:55:36.216Z,11.23
2022-12-28T09:58:11.195Z,11.53
2022-12-28T10:00:47.211Z,11.10
2022-12-28T10:03:37.562Z,12.17
2022-12-28T10:06:18.257Z,11.10
2022-12-28T10:08:52.508Z,10.43
2022-12-28T10:11:41.471Z,11.30
2022-12-28T10:14:28.179Z,11.37
2022-12-28T10:16:55.972Z,10.57
2022-12-28T10:19:25.849Z,10.53
2022-12-28T10:22:18.338Z,10.97
2022-12-28T10:24:47.439Z,9.67
2022-12-28T10:27:33.189Z,10.23
2022-12-28T10:30:14.970Z,11.00
2022-12-28T10:32:50.930Z,9.27
2022-12-28T10:35:29.121Z,10.43
2022-12-28T10:38:07.849Z,10.97
2022-12-28T10:40:39.580Z,10.07
2022-12-28T10:43:19.277Z,9.30
2022-12-28T10:45:51.735Z,9.33
2022-12-28T10:48:24.286Z,10.33
2022-12-28T10:51:00.442Z,9.83
2022-12-28T10:53:40.424Z,10.47
2022-12-28T10:56:14.336Z,10.93
2022-12-28T10:58:43.685Z,9.97
2022-12-28T11:01:15.196Z,9.97
2022-12-28T11:03:57.422Z,10.50
2022-12-28T11:06:28.178Z,10.10
2022-12-28T11:09:04.691Z,10.60
2022-12-28T11:11:33.209Z,10.63
2022-12-28T11:14:11.431Z,9.30
2022-12-28T11:16:39.718Z,9.93
2022-12-28T11:19:07.547Z,9.73
2022-12-28T11:21:35.511Z,10.23
2022-12-28T11:24:04.478Z,9.10
2022-12-28T11:26:34.016Z,9.83
2022-12-28T11:29:01.959Z,9.83
2022-12-28T11:31:30.058Z,9.80
2022-12-28T11:34:03.529Z,10.13
2022-12-28T11:36:33.668Z,9.27
2022-12-28T11:39:26.595Z,10.60
2022-12-28T11:42:36.582Z,11.37
2022-12-28T11:44:43.988Z,8.47
2022-12-28T11:47:24.885Z,8.60
2022-12-28T11:49:55.717Z,10.10
2022-12-28T11:52:34.403Z,9.97
2022-12-28T11:55:21.677Z,11.00
2022-12-28T11:57:49.888Z,9.57
2022-12-28T12:00:22.207Z,10.43
2022-12-28T12:02:58.791Z,10.97
2022-12-28T12:05:38.744Z,9.87
2022-12-28T12:08:13.678Z,10.57
2022-12-28T12:10:43.159Z,9.50
2022-12-28T12:13:26.121Z,10.87
2022-12-28T12:15:56.955Z,11.77
2022-12-28T12:18:27.480Z,10.27
2022-12-28T12:21:15.107Z,8.97
2022-12-28T12:23:54.305Z,11.43
2022-12-28T12:26:51.499Z,9.90
2022-12-28T12:29:29.522Z,9.70
2022-12-28T12:32:07.126Z,10.77
2022-12-28T12:34:35.093Z,11.37
2022-12-28T12:37:22.105Z,11.53
2022-12-28T12:40:03.538Z,11.03
2022-12-28T12:43:03.046Z,11.17
2022-12-28T12:46:08.643Z,11.97
2022-12-28T12:49:00.888Z,13.77
2022-12-28T12:51:45.288Z,14.03
2022-12-28T12:54:40.476Z,14.37
2022-12-28T12:57:30.315Z,15.07
2022-12-28T13:00:15.255Z,15.57
2022-12-28T13:02:43.431Z,15.27
2022-12-28T13:05:18.969Z,16.33
2022-12-28T13:07:47.843Z,15.57
2022-12-28T13:10:24.649Z,16.23
2022-12-28T13:12:57.131Z,14.97
2022-12-28T13:15:25.003Z,12.40
2022-12-28T13:21:22.947Z,13.23
2022-12-28T13:23:53.395Z,12.33
2022-12-28T13:26:30.303Z,12.77
2022-12-28T13:29:01.626Z,12.13
2022-12-28T13:31:34.416Z,11.87
2022-12-28T13:34:06.784Z,11.33
2022-12-28T13:36:35.817Z,10.27
2022-12-28T13:39:06.219Z,9.57
2022-12-28T13:41:38.004Z,10.73
2022-12-28T13:44:08.605Z,10.57
2022-12-28T13:46:40.103Z,10.73
2022-12-28T13:49:09.088Z,11.33
2022-12-28T13:51:40.132Z,11.13
2022-12-28T13:54:10.939Z,10.50
2022-12-28T13:56:41.660Z,10.20
2022-12-28T13:59:16.777Z,11.07
2022-12-28T14:01:50.503Z,10.17
2022-12-28T14:07:18.816Z,10.97
2022-12-28T14:09:49.236Z,11.07
2022-12-28T14:12:18.707Z,10.73
2022-12-28T14:14:49.666Z,11.47
2022-12-28T14:17:17.643Z,10.87
2022-12-28T14:19:47.152Z,11.30
2022-12-28T14:22:30.551Z,11.17
2022-12-28T14:25:12.603Z,10.07
2022-12-28T14:27:42.967Z,9.77
2022-12-28T14:30:25.444Z,9.10
2022-12-28T14:32:54.027Z,9.63
2022-12-28T14:35:26.034Z,8.73
2022-12-28T14:38:01.593Z,9.47
2022-12-28T14:40:34.683Z,9.57
2022-12-28T14:43:25.852Z,9.83
2022-12-28T14:46:06.666Z,9.00
2022-12-28T14:48:37.920Z,15.73
2022-12-28T14:51:27.735Z,10.53
2022-12-28T14:54:23.804Z,16.03
2022-12-28T14:56:58.518Z,18.07
2022-12-28T14:59:38.409Z,8.43
2022-12-28T15:02:07.292Z,8.00
2022-12-28T15:04:36.401Z,8.00
2022-12-28T15:07:06.491Z,8.50
2022-12-28T15:09:34.672Z,8.87
2022-12-28T15:12:15.723Z,9.03
2022-12-28T15:14:45.855Z,7.20
2022-12-28T15:17:14.012Z,6.53
2022-12-28T15:19:43.488Z,9.47
2022-12-28T15:22:12.222Z,6.77
2022-12-28T15:24:41.748Z,7.53
2022-12-28T15:27:09.813Z,7.33
2022-12-28T15:30:09.834Z,6.90
2022-12-28T15:32:26.418Z,5.67
2022-12-28T15:34:54.376Z,5.97
2022-12-28T15:37:22.518Z,6.03
2022-12-28T15:39:50.319Z,6.43
2022-12-28T15:42:18.400Z,6.63
2022-12-28T15:44:48.727Z,5.63
2022-12-28T15:47:17.096Z,6.40
2022-12-28T15:49:45.141Z,7.30
2022-12-28T15:52:13.711Z,6.47
2022-12-28T15:54:46.949Z,6.70
2022-12-28T15:57:15.943Z,7.13
2022-12-28T15:59:44.204Z,6.13
2022-12-28T16:02:12.996Z,7.10
2022-12-28T16:04:41.095Z,5.53
2022-12-28T16:07:09.397Z,6.20
2022-12-28T16:09:37.656Z,6.83
2022-12-28T16:12:05.815Z,7.40
2022-12-28T16:14:33.599Z,6.57
2022-12-28T16:17:01.794Z,6.93
2022-12-28T16:19:29.975Z,6.63
2022-12-28T16:21:58.533Z,6.87
2022-12-28T16:24:26.247Z,7.00
2022-12-28T16:26:54.171Z,7.77
2022-12-28T16:29:21.856Z,7.23
2022-12-28T16:31:52.974Z,7.70
2022-12-28T16:34:20.403Z,7.70
2022-12-28T16:36:48.788Z,7.67
2022-12-28T16:39:18.335Z,7.53
2022-12-28T16:41:46.528Z,8.73
2022-12-28T16:44:17.034Z,8.23
2022-12-28T16:46:44.978Z,8.77
2022-12-28T16:49:12.880Z,8.70
2022-12-28T16:51:44.214Z,8.97
2022-12-28T16:54:17.110Z,9.00
2022-12-28T16:56:46.812Z,8.73
2022-12-28T16:59:16.927Z,8.47
2022-12-28T17:01:45.504Z,8.97
2022-12-28T17:04:13.630Z,8.37
2022-12-28T17:06:43.920Z,8.40
2022-12-28T17:09:11.752Z,8.57
2022-12-28T17:11:39.813Z,9.53
2022-12-28T17:14:11.432Z,9.27
2022-12-28T17:16:39.984Z,10.30
2022-12-28T17:19:08.014Z,11.57
2022-12-28T17:21:36.196Z,10.73
2022-12-28T17:24:04.159Z,13.27
2022-12-28T17:26:31.771Z,9.33
2022-12-28T17:28:59.756Z,10.03
2022-12-28T17:31:28.675Z,10.93
2022-12-28T17:33:58.357Z,9.73
2022-12-28T17:36:26.960Z,11.20
2022-12-28T17:38:54.841Z,11.10
2022-12-28T17:41:26.072Z,10.97
2022-12-28T17:43:59.001Z,10.70
2022-12-28T17:46:30.013Z,11.23
2022-12-28T17:48:58.915Z,13.03
2022-12-28T17:51:29.282Z,14.30
2022-12-28T17:53:57.536Z,10.47
2022-12-28T17:56:26.279Z,10.20
2022-12-28T17:58:56.803Z,10.37
2022-12-28T18:01:26.436Z,10.03
2022-12-28T18:03:54.719Z,10.30
2022-12-28T18:06:23.833Z,10.20
2022-12-28T18:08:52.344Z,10.63
2022-12-28T18:11:23.629Z,10.27
2022-12-28T18:13:51.881Z,9.37
2022-12-28T18:16:21.417Z,9.63
2022-12-28T18:18:49.641Z,10.93
2022-12-28T18:21:21.714Z,9.53
2022-12-28T18:23:52.258Z,9.83
2022-12-28T18:26:23.570Z,10.90
2022-12-28T18:28:52.684Z,11.00
2022-12-28T18:31:21.258Z,12.47
2022-12-28T18:33:49.755Z,12.23
2022-12-28T18:36:18.832Z,11.27
2022-12-28T18:38:48.027Z,11.57
2022-12-28T18:41:20.914Z,13.07
2022-12-28T18:43:49.255Z,11.40
2022-12-28T18:46:19.158Z,11.40
2022-12-28T18:48:48.243Z,14.23
2022-12-28T18:51:18.992Z,11.90
2022-12-28T18:53:50.660Z,10.57
2022-12-28T18:56:21.227Z,11.53
2022-12-28T18:58:55.034Z,10.77
2022-12-28T19:04:16.116Z,10.10
2022-12-28T19:06:45.959Z,9.90
2022-12-28T19:09:14.191Z,9.23
2022-12-28T19:11:44.564Z,9.80
2022-12-28T19:14:16.184Z,9.37
2022-12-28T19:16:46.391Z,9.20
2022-12-28T19:19:17.506Z,10.27
2022-12-28T19:21:52.319Z,9.77
2022-12-28T19:24:28.094Z,8.57
2022-12-28T19:26:58.341Z,9.50
2022-12-28T19:29:26.719Z,8.03
2022-12-28T19:31:55.612Z,9.10
2022-12-28T19:34:25.074Z,8.23
2022-12-28T19:36:54.217Z,9.00
2022-12-28T19:39:23.249Z,8.17
2022-12-28T19:41:52.402Z,9.73
2022-12-28T19:44:22.024Z,8.40
2022-12-28T19:46:55.243Z,9.33
2022-12-28T19:49:24.035Z,8.63
2022-12-28T19:51:56.273Z,9.03
2022-12-28T19:54:29.084Z,9.57
2022-12-28T19:56:58.159Z,8.80
2022-12-28T19:59:26.619Z,9.17
2022-12-28T20:01:56.086Z,9.80
2022-12-28T20:04:25.692Z,7.87
2022-12-28T20:06:55.843Z,8.17
2022-12-28T20:09:25.022Z,7.40
2022-12-28T20:11:54.017Z,8.03
2022-12-28T20:14:25.197Z,8.17
2022-12-28T20:16:54.938Z,6.87
2022-12-28T20:19:24.438Z,7.57
2022-12-28T20:21:53.972Z,7.67
2022-12-28T20:24:25.734Z,6.83
2022-12-28T20:27:01.500Z,6.83
2022-12-28T20:29:30.838Z,6.83
2022-12-28T20:32:00.297Z,7.57
2022-12-28T20:34:28.621Z,7.40
2022-12-28T20:36:59.524Z,8.13
2022-12-28T20:39:31.724Z,7.57
2022-12-28T20:42:19.600Z,7.87
2022-12-28T20:44:52.414Z,7.43
2022-12-28T20:47:22.659Z,7.43
2022-12-28T20:49:54.255Z,8.23
2022-12-28T20:52:23.802Z,7.33
2022-12-28T20:54:52.495Z,6.73
2022-12-28T20:57:21.570Z,7.87
2022-12-28T20:59:49.711Z,7.07
2022-12-28T21:02:18.019Z,7.20
2022-12-28T21:04:46.760Z,6.70
2022-12-28T21:07:15.574Z,8.83
2022-12-28T21:09:45.386Z,7.37
2022-12-28T21:12:13.871Z,7.40
2022-12-28T21:14:41.983Z,6.83
2022-12-28T21:17:10.036Z,6.43
2022-12-28T21:19:38.052Z,6.87
2022-12-28T21:22:06.629Z,7.27
2022-12-28T21:24:35.567Z,6.83
2022-12-28T21:27:04.884Z,7.43
2022-12-28T21:29:33.728Z,7.03
2022-12-28T21:32:02.207Z,7.43
2022-12-28T21:34:30.873Z,7.37
2022-12-28T21:37:19.216Z,6.70
2022-12-28T21:39:46.809Z,7.70
2022-12-28T21:42:15.254Z,6.97
2022-12-28T21:44:43.325Z,7.77
2022-12-28T21:47:11.426Z,8.43
2022-12-28T21:49:39.299Z,7.90
2022-12-28T21:52:07.751Z,6.87
2022-12-28T21:54:35.706Z,7.87
2022-12-28T21:57:06.423Z,8.00
2022-12-28T21:59:34.861Z,7.33
2022-12-28T22:02:22.332Z,7.03
2022-12-28T22:05:09.577Z,6.90
2022-12-28T22:07:38.297Z,8.10
2022-12-28T22:10:25.303Z,6.83
2022-12-28T22:12:53.502Z,7.27
2022-12-28T22:15:43.923Z,7.13
2022-12-28T22:21:13.419Z,7.13
2022-12-28T22:23:41.283Z,7.10
2022-12-28T22:26:09.055Z,7.30
2022-12-28T22:28:37.427Z,7.83
2022-12-28T22:31:06.724Z,6.90
2022-12-28T22:33:36.102Z,6.00
2022-12-28T22:36:15.270Z,6.70
2022-12-28T22:38:43.968Z,6.47
2022-12-28T22:41:12.416Z,6.70
2022-12-28T22:43:40.523Z,6.53
2022-12-28T22:46:10.869Z,8.60
2022-12-28T22:48:38.774Z,6.57
2022-12-28T22:51:09.073Z,7.50
2022-12-28T22:53:37.285Z,6.73
2022-12-28T22:56:07.481Z,6.30
2022-12-28T22:58:36.281Z,6.33
2022-12-28T23:01:09.308Z,7.03
2022-12-28T23:03:39.401Z,5.90
2022-12-28T23:06:08.183Z,5.87
2022-12-28T23:08:36.050Z,5.77
2022-12-28T23:11:26.709Z,5.90
2022-12-28T23:13:54.898Z,6.97
2022-12-28T23:16:23.408Z,5.83
2022-12-28T23:19:10.161Z,5.77
2022-12-28T23:21:56.475Z,6.27
2022-12-28T23:24:43.267Z,5.90
2022-12-28T23:27:20.232Z,6.40
2022-12-28T23:29:48.837Z,6.53
2022-12-28T23:32:16.643Z,6.07
2022-12-28T23:34:45.278Z,6.17
2022-12-28T23:37:13.570Z,6.33
2022-12-28T23:39:41.936Z,7.00
2022-12-28T23:42:09.857Z,7.37
2022-12-28T23:44:38.044Z,8.80
2022-12-28T23:47:06.273Z,8.33
2022-12-28T23:49:34.503Z,9.50
2022-12-28T23:52:02.585Z,9.87
2022-12-28T23:54:30.614Z,10.60
2022-12-28T23:56:58.435Z,11.20
2022-12-28T23:59:26.722Z,11.70
